sensor_id;sensor_type;location;lat;lon;timestamp;P1;durP1;ratioP1;P2;durP2;ratioP2
29538;SDS011;16482;51.046;4.498;2023-02-28T00:02:09;3.70;;;2.22;;
29538;SDS011;16482;51.046;4.498;2023-02-28T00:04:35;4.07;;;2.58;;
29538;SDS011;16482;51.046;4.498;2023-02-28T00:07:01;3.58;;;2.38;;
29538;SDS011;16482;51.046;4.498;2023-02-28T00:09:36;4.82;;;2.38;;
29538;SDS011;16482;51.046;4.498;2023-02-28T00:12:02;3.92;;;1.98;;
29538;SDS011;16482;51.046;4.498;2023-02-28T00:14:35;3.75;;;2.25;;
29538;SDS011;16482;51.046;4.498;2023-02-28T00:17:03;4.13;;;2.25;;
29538;SDS011;16482;51.046;4.498;2023-02-28T00:19:32;3.92;;;2.05;;
29538;SDS011;16482;51.046;4.498;2023-02-28T00:22:01;3.40;;;2.25;;
29538;SDS011;16482;51.046;4.498;2023-02-28T00:24:34;2.83;;;2.00;;
29538;SDS011;16482;51.046;4.498;2023-02-28T00:27:08;3.42;;;2.28;;
29538;SDS011;16482;51.046;4.498;2023-02-28T00:29:34;4.57;;;2.53;;
29538;SDS011;16482;51.046;4.498;2023-02-28T00:32:09;3.58;;;2.42;;
29538;SDS011;16482;51.046;4.498;2023-02-28T00:34:35;3.78;;;2.17;;
29538;SDS011;16482;51.046;4.498;2023-02-28T00:37:06;4.03;;;2.13;;
29538;SDS011;16482;51.046;4.498;2023-02-28T00:39:35;3.35;;;1.88;;
29538;SDS011;16482;51.046;4.498;2023-02-28T00:42:02;5.20;;;2.15;;
29538;SDS011;16482;51.046;4.498;2023-02-28T00:44:36;4.22;;;2.28;;
29538;SDS011;16482;51.046;4.498;2023-02-28T00:47:04;3.20;;;1.98;;
29538;SDS011;16482;51.046;4.498;2023-02-28T00:49:33;4.03;;;2.22;;
29538;SDS011;16482;51.046;4.498;2023-02-28T00:52:08;3.28;;;2.15;;
29538;SDS011;16482;51.046;4.498;2023-02-28T00:54:33;3.05;;;2.03;;
29538;SDS011;16482;51.046;4.498;2023-02-28T00:57:08;4.78;;;2.45;;
29538;SDS011;16482;51.046;4.498;2023-02-28T00:59:35;4.10;;;2.28;;
29538;SDS011;16482;51.046;4.498;2023-02-28T01:02:03;4.05;;;2.22;;
29538;SDS011;16482;51.046;4.498;2023-02-28T01:04:38;3.30;;;2.35;;
29538;SDS011;16482;51.046;4.498;2023-02-28T01:07:04;3.53;;;2.33;;
29538;SDS011;16482;51.046;4.498;2023-02-28T01:09:39;3.95;;;2.47;;
29538;SDS011;16482;51.046;4.498;2023-02-28T01:12:06;2.85;;;2.20;;
29538;SDS011;16482;51.046;4.498;2023-02-28T01:14:36;3.78;;;2.30;;
29538;SDS011;16482;51.046;4.498;2023-02-28T01:17:05;3.45;;;2.25;;
29538;SDS011;16482;51.046;4.498;2023-02-28T01:19:33;3.20;;;2.20;;
29538;SDS011;16482;51.046;4.498;2023-02-28T01:22:04;3.13;;;2.22;;
29538;SDS011;16482;51.046;4.498;2023-02-28T01:24:34;3.38;;;2.00;;
29538;SDS011;16482;51.046;4.498;2023-02-28T01:27:08;4.05;;;2.33;;
29538;SDS011;16482;51.046;4.498;2023-02-28T01:29:34;5.22;;;2.75;;
29538;SDS011;16482;51.046;4.498;2023-02-28T01:32:03;3.83;;;2.22;;
29538;SDS011;16482;51.046;4.498;2023-02-28T01:34:36;4.20;;;2.17;;
29538;SDS011;16482;51.046;4.498;2023-02-28T01:37:02;3.50;;;2.42;;
29538;SDS011;16482;51.046;4.498;2023-02-28T01:39:36;4.13;;;2.33;;
29538;SDS011;16482;51.046;4.498;2023-02-28T01:42:02;3.67;;;2.30;;
29538;SDS011;16482;51.046;4.498;2023-02-28T01:47:21;3.83;;;2.08;;
29538;SDS011;16482;51.046;4.498;2023-02-28T01:49:48;4.30;;;2.10;;
29538;SDS011;16482;51.046;4.498;2023-02-28T01:52:16;3.13;;;2.15;;
29538;SDS011;16482;51.046;4.498;2023-02-28T01:54:47;2.70;;;2.35;;
29538;SDS011;16482;51.046;4.498;2023-02-28T01:57:18;3.67;;;2.15;;
29538;SDS011;16482;51.046;4.498;2023-02-28T01:59:55;2.95;;;2.15;;
29538;SDS011;16482;51.046;4.498;2023-02-28T02:02:25;7.03;;;2.45;;
29538;SDS011;16482;51.046;4.498;2023-02-28T02:05:00;3.92;;;2.10;;
29538;SDS011;16482;51.046;4.498;2023-02-28T02:07:32;3.40;;;2.10;;
29538;SDS011;16482;51.046;4.498;2023-02-28T02:10:10;3.25;;;2.10;;
29538;SDS011;16482;51.046;4.498;2023-02-28T02:18:50;4.18;;;2.25;;
29538;SDS011;16482;51.046;4.498;2023-02-28T02:30:29;4.57;;;2.58;;
29538;SDS011;16482;51.046;4.498;2023-02-28T02:35:47;2.97;;;2.03;;
29538;SDS011;16482;51.046;4.498;2023-02-28T02:41:31;4.53;;;2.55;;
29538;SDS011;16482;51.046;4.498;2023-02-28T02:44:02;2.72;;;1.92;;
29538;SDS011;16482;51.046;4.498;2023-02-28T02:46:37;4.25;;;2.30;;
29538;SDS011;16482;51.046;4.498;2023-02-28T02:49:08;3.10;;;2.30;;
29538;SDS011;16482;51.046;4.498;2023-02-28T02:51:38;4.22;;;2.50;;
29538;SDS011;16482;51.046;4.498;2023-02-28T02:54:10;4.30;;;2.38;;
29538;SDS011;16482;51.046;4.498;2023-02-28T02:56:47;2.63;;;1.98;;
29538;SDS011;16482;51.046;4.498;2023-02-28T02:59:16;3.97;;;2.45;;
29538;SDS011;16482;51.046;4.498;2023-02-28T03:01:49;4.93;;;2.60;;
29538;SDS011;16482;51.046;4.498;2023-02-28T03:04:22;3.97;;;2.30;;
29538;SDS011;16482;51.046;4.498;2023-02-28T03:06:52;3.58;;;2.17;;
29538;SDS011;16482;51.046;4.498;2023-02-28T03:09:37;4.47;;;2.47;;
29538;SDS011;16482;51.046;4.498;2023-02-28T03:12:03;3.42;;;2.35;;
29538;SDS011;16482;51.046;4.498;2023-02-28T03:25:09;3.92;;;2.38;;
29538;SDS011;16482;51.046;4.498;2023-02-28T03:30:49;4.00;;;2.40;;
29538;SDS011;16482;51.046;4.498;2023-02-28T03:33:21;3.47;;;2.30;;
29538;SDS011;16482;51.046;4.498;2023-02-28T03:35:55;5.60;;;2.50;;
29538;SDS011;16482;51.046;4.498;2023-02-28T03:38:49;3.30;;;2.13;;
29538;SDS011;16482;51.046;4.498;2023-02-28T03:41:20;3.38;;;2.20;;
29538;SDS011;16482;51.046;4.498;2023-02-28T03:44:00;4.47;;;2.22;;
29538;SDS011;16482;51.046;4.498;2023-02-28T03:46:34;3.63;;;2.00;;
29538;SDS011;16482;51.046;4.498;2023-02-28T03:49:06;4.25;;;2.72;;
29538;SDS011;16482;51.046;4.498;2023-02-28T03:51:39;4.68;;;2.50;;
29538;SDS011;16482;51.046;4.498;2023-02-28T03:54:08;3.55;;;2.40;;
29538;SDS011;16482;51.046;4.498;2023-02-28T03:56:38;3.42;;;2.42;;
29538;SDS011;16482;51.046;4.498;2023-02-28T03:59:19;3.13;;;2.00;;
29538;SDS011;16482;51.046;4.498;2023-02-28T04:02:09;4.10;;;2.25;;
29538;SDS011;16482;51.046;4.498;2023-02-28T04:04:38;5.35;;;2.55;;
29538;SDS011;16482;51.046;4.498;2023-02-28T04:07:10;2.65;;;2.17;;
29538;SDS011;16482;51.046;4.498;2023-02-28T04:09:37;3.80;;;2.42;;
29538;SDS011;16482;51.046;4.498;2023-02-28T04:12:03;4.20;;;2.55;;
29538;SDS011;16482;51.046;4.498;2023-02-28T04:14:38;3.65;;;2.22;;
29538;SDS011;16482;51.046;4.498;2023-02-28T04:17:04;2.90;;;2.33;;
29538;SDS011;16482;51.046;4.498;2023-02-28T04:19:39;3.97;;;2.20;;
29538;SDS011;16482;51.046;4.498;2023-02-28T04:22:05;5.20;;;2.47;;
29538;SDS011;16482;51.046;4.498;2023-02-28T04:24:34;3.47;;;2.38;;
29538;SDS011;16482;51.046;4.498;2023-02-28T04:27:08;4.13;;;2.60;;
29538;SDS011;16482;51.046;4.498;2023-02-28T04:29:34;3.78;;;2.40;;
29538;SDS011;16482;51.046;4.498;2023-02-28T04:32:08;3.75;;;2.22;;
29538;SDS011;16482;51.046;4.498;2023-02-28T04:34:34;6.05;;;2.58;;
29538;SDS011;16482;51.046;4.498;2023-02-28T04:37:09;3.58;;;2.17;;
29538;SDS011;16482;51.046;4.498;2023-02-28T04:39:35;4.57;;;2.50;;
29538;SDS011;16482;51.046;4.498;2023-02-28T04:42:04;5.38;;;2.47;;
29538;SDS011;16482;51.046;4.498;2023-02-28T04:44:38;4.28;;;2.60;;
29538;SDS011;16482;51.046;4.498;2023-02-28T04:47:06;4.25;;;2.40;;
29538;SDS011;16482;51.046;4.498;2023-02-28T04:49:35;2.53;;;1.90;;
29538;SDS011;16482;51.046;4.498;2023-02-28T04:52:03;4.70;;;2.40;;
29538;SDS011;16482;51.046;4.498;2023-02-28T04:54:37;4.57;;;2.53;;
29538;SDS011;16482;51.046;4.498;2023-02-28T04:57:04;3.63;;;2.28;;
29538;SDS011;16482;51.046;4.498;2023-02-28T04:59:37;3.08;;;2.03;;
29538;SDS011;16482;51.046;4.498;2023-02-28T05:02:06;2.97;;;2.00;;
29538;SDS011;16482;51.046;4.498;2023-02-28T05:04:35;4.28;;;2.50;;
29538;SDS011;16482;51.046;4.498;2023-02-28T05:07:06;3.35;;;2.05;;
29538;SDS011;16482;51.046;4.498;2023-02-28T05:09:35;3.63;;;2.00;;
29538;SDS011;16482;51.046;4.498;2023-02-28T05:12:03;2.53;;;2.08;;
29538;SDS011;16482;51.046;4.498;2023-02-28T05:14:37;3.88;;;2.20;;
29538;SDS011;16482;51.046;4.498;2023-02-28T05:17:06;3.80;;;2.28;;
29538;SDS011;16482;51.046;4.498;2023-02-28T05:19:36;3.40;;;2.00;;
29538;SDS011;16482;51.046;4.498;2023-02-28T05:22:01;4.20;;;2.20;;
29538;SDS011;16482;51.046;4.498;2023-02-28T05:24:35;3.55;;;2.10;;
29538;SDS011;16482;51.046;4.498;2023-02-28T05:27:03;2.78;;;2.20;;
29538;SDS011;16482;51.046;4.498;2023-02-28T05:29:36;3.28;;;1.98;;
29538;SDS011;16482;51.046;4.498;2023-02-28T05:32:10;5.80;;;2.13;;
29538;SDS011;16482;51.046;4.498;2023-02-28T05:34:37;3.00;;;2.00;;
29538;SDS011;16482;51.046;4.498;2023-02-28T05:37:06;3.67;;;2.13;;
29538;SDS011;16482;51.046;4.498;2023-02-28T05:39:41;3.55;;;2.33;;
29538;SDS011;16482;51.046;4.498;2023-02-28T05:42:07;5.25;;;2.75;;
29538;SDS011;16482;51.046;4.498;2023-02-28T05:44:34;5.22;;;1.90;;
29538;SDS011;16482;51.046;4.498;2023-02-28T05:47:03;3.38;;;2.17;;
29538;SDS011;16482;51.046;4.498;2023-02-28T05:49:39;3.92;;;1.92;;
29538;SDS011;16482;51.046;4.498;2023-02-28T05:52:05;2.50;;;1.48;;
29538;SDS011;16482;51.046;4.498;2023-02-28T05:54:34;2.90;;;1.98;;
29538;SDS011;16482;51.046;4.498;2023-02-28T05:57:02;3.05;;;1.80;;
29538;SDS011;16482;51.046;4.498;2023-02-28T05:59:34;3.40;;;2.03;;
29538;SDS011;16482;51.046;4.498;2023-02-28T06:02:04;2.38;;;1.90;;
29538;SDS011;16482;51.046;4.498;2023-02-28T06:04:33;4.00;;;2.08;;
29538;SDS011;16482;51.046;4.498;2023-02-28T06:07:02;3.63;;;1.92;;
29538;SDS011;16482;51.046;4.498;2023-02-28T06:09:37;2.50;;;1.83;;
29538;SDS011;16482;51.046;4.498;2023-02-28T06:12:04;3.15;;;1.70;;
29538;SDS011;16482;51.046;4.498;2023-02-28T06:14:35;2.50;;;1.60;;
29538;SDS011;16482;51.046;4.498;2023-02-28T06:17:04;2.63;;;1.80;;
29538;SDS011;16482;51.046;4.498;2023-02-28T06:19:33;2.72;;;1.90;;
29538;SDS011;16482;51.046;4.498;2023-02-28T06:22:06;2.88;;;1.70;;
29538;SDS011;16482;51.046;4.498;2023-02-28T06:24:34;3.58;;;1.52;;
29538;SDS011;16482;51.046;4.498;2023-02-28T06:27:03;2.30;;;1.73;;
29538;SDS011;16482;51.046;4.498;2023-02-28T06:29:33;2.38;;;1.63;;
29538;SDS011;16482;51.046;4.498;2023-02-28T06:32:03;2.72;;;1.85;;
29538;SDS011;16482;51.046;4.498;2023-02-28T06:34:35;2.65;;;1.75;;
29538;SDS011;16482;51.046;4.498;2023-02-28T06:37:04;3.03;;;1.73;;
29538;SDS011;16482;51.046;4.498;2023-02-28T06:39:33;2.95;;;1.73;;
29538;SDS011;16482;51.046;4.498;2023-02-28T06:42:09;2.65;;;1.50;;
29538;SDS011;16482;51.046;4.498;2023-02-28T06:44:35;2.65;;;1.63;;
29538;SDS011;16482;51.046;4.498;2023-02-28T06:47:05;3.08;;;1.67;;
29538;SDS011;16482;51.046;4.498;2023-02-28T06:49:32;4.30;;;2.00;;
29538;SDS011;16482;51.046;4.498;2023-02-28T06:52:06;3.13;;;1.60;;
29538;SDS011;16482;51.046;4.498;2023-02-28T06:54:35;3.30;;;1.95;;
29538;SDS011;16482;51.046;4.498;2023-02-28T06:57:04;3.72;;;2.05;;
29538;SDS011;16482;51.046;4.498;2023-02-28T06:59:33;2.28;;;1.75;;
29538;SDS011;16482;51.046;4.498;2023-02-28T07:02:05;4.85;;;1.98;;
29538;SDS011;16482;51.046;4.498;2023-02-28T07:04:34;3.90;;;1.90;;
29538;SDS011;16482;51.046;4.498;2023-02-28T07:07:09;3.20;;;1.80;;
29538;SDS011;16482;51.046;4.498;2023-02-28T07:09:35;2.00;;;1.65;;
29538;SDS011;16482;51.046;4.498;2023-02-28T07:12:04;2.70;;;1.67;;
29538;SDS011;16482;51.046;4.498;2023-02-28T07:14:33;2.45;;;1.67;;
29538;SDS011;16482;51.046;4.498;2023-02-28T07:17:03;4.55;;;1.83;;
29538;SDS011;16482;51.046;4.498;2023-02-28T07:19:34;2.58;;;1.90;;
29538;SDS011;16482;51.046;4.498;2023-02-28T07:22:06;2.65;;;1.70;;
29538;SDS011;16482;51.046;4.498;2023-02-28T07:24:32;3.22;;;1.65;;
29538;SDS011;16482;51.046;4.498;2023-02-28T07:26:59;3.22;;;1.70;;
29538;SDS011;16482;51.046;4.498;2023-02-28T07:29:35;2.50;;;1.67;;
29538;SDS011;16482;51.046;4.498;2023-02-28T07:32:03;3.38;;;1.73;;
29538;SDS011;16482;51.046;4.498;2023-02-28T07:34:37;2.47;;;1.90;;
29538;SDS011;16482;51.046;4.498;2023-02-28T07:37:10;2.80;;;1.60;;
29538;SDS011;16482;51.046;4.498;2023-02-28T07:39:36;2.17;;;1.70;;
29538;SDS011;16482;51.046;4.498;2023-02-28T07:42:05;4.20;;;1.65;;
29538;SDS011;16482;51.046;4.498;2023-02-28T07:44:36;4.07;;;1.95;;
29538;SDS011;16482;51.046;4.498;2023-02-28T07:47:08;3.30;;;1.83;;
29538;SDS011;16482;51.046;4.498;2023-02-28T07:49:35;3.28;;;1.67;;
29538;SDS011;16482;51.046;4.498;2023-02-28T07:52:05;2.33;;;1.50;;
29538;SDS011;16482;51.046;4.498;2023-02-28T07:54:34;2.83;;;1.67;;
29538;SDS011;16482;51.046;4.498;2023-02-28T07:57:07;4.10;;;1.67;;
29538;SDS011;16482;51.046;4.498;2023-02-28T07:59:33;5.63;;;1.80;;
29538;SDS011;16482;51.046;4.498;2023-02-28T08:02:04;3.00;;;1.83;;
29538;SDS011;16482;51.046;4.498;2023-02-28T08:04:36;2.35;;;1.58;;
29538;SDS011;16482;51.046;4.498;2023-02-28T08:07:04;2.67;;;1.90;;
29538;SDS011;16482;51.046;4.498;2023-02-28T08:09:39;2.60;;;1.80;;
29538;SDS011;16482;51.046;4.498;2023-02-28T08:12:06;2.17;;;1.75;;
29538;SDS011;16482;51.046;4.498;2023-02-28T08:14:35;2.78;;;1.75;;
29538;SDS011;16482;51.046;4.498;2023-02-28T08:17:04;3.78;;;1.77;;
29538;SDS011;16482;51.046;4.498;2023-02-28T08:19:33;4.20;;;1.80;;
29538;SDS011;16482;51.046;4.498;2023-02-28T08:22:06;3.83;;;1.90;;
29538;SDS011;16482;51.046;4.498;2023-02-28T08:24:32;3.10;;;1.80;;
29538;SDS011;16482;51.046;4.498;2023-02-28T08:27:06;3.63;;;1.77;;
29538;SDS011;16482;51.046;4.498;2023-02-28T08:29:40;3.00;;;1.67;;
29538;SDS011;16482;51.046;4.498;2023-02-28T08:32:06;2.60;;;1.60;;
29538;SDS011;16482;51.046;4.498;2023-02-28T08:34:36;1.80;;;1.60;;
29538;SDS011;16482;51.046;4.498;2023-02-28T08:37:07;2.70;;;1.70;;
29538;SDS011;16482;51.046;4.498;2023-02-28T08:39:35;2.78;;;1.55;;
29538;SDS011;16482;51.046;4.498;2023-02-28T08:42:10;3.53;;;1.90;;
29538;SDS011;16482;51.046;4.498;2023-02-28T08:44:36;3.35;;;1.60;;
29538;SDS011;16482;51.046;4.498;2023-02-28T08:47:05;3.38;;;1.60;;
29538;SDS011;16482;51.046;4.498;2023-02-28T08:49:34;2.45;;;1.55;;
29538;SDS011;16482;51.046;4.498;2023-02-28T08:52:07;3.30;;;1.67;;
29538;SDS011;16482;51.046;4.498;2023-02-28T08:54:33;2.88;;;1.85;;
29538;SDS011;16482;51.046;4.498;2023-02-28T08:57:03;1.60;;;1.48;;
29538;SDS011;16482;51.046;4.498;2023-02-28T08:59:34;2.10;;;1.50;;
29538;SDS011;16482;51.046;4.498;2023-02-28T09:02:08;2.80;;;1.70;;
29538;SDS011;16482;51.046;4.498;2023-02-28T09:04:37;1.90;;;1.50;;
29538;SDS011;16482;51.046;4.498;2023-02-28T09:07:05;3.85;;;1.80;;
29538;SDS011;16482;51.046;4.498;2023-02-28T09:09:33;1.88;;;1.50;;
29538;SDS011;16482;51.046;4.498;2023-02-28T09:12:04;2.42;;;1.50;;
29538;SDS011;16482;51.046;4.498;2023-02-28T09:14:33;4.15;;;1.67;;
29538;SDS011;16482;51.046;4.498;2023-02-28T09:17:05;4.15;;;1.50;;
29538;SDS011;16482;51.046;4.498;2023-02-28T09:19:34;2.80;;;1.67;;
29538;SDS011;16482;51.046;4.498;2023-02-28T09:22:09;2.03;;;1.50;;
29538;SDS011;16482;51.046;4.498;2023-02-28T09:24:36;2.17;;;1.50;;
29538;SDS011;16482;51.046;4.498;2023-02-28T09:27:06;2.58;;;1.52;;
29538;SDS011;16482;51.046;4.498;2023-02-28T09:29:35;2.65;;;1.50;;
29538;SDS011;16482;51.046;4.498;2023-02-28T09:32:06;2.00;;;1.05;;
29538;SDS011;16482;51.046;4.498;2023-02-28T09:34:34;1.90;;;1.20;;
29538;SDS011;16482;51.046;4.498;2023-02-28T09:37:09;2.70;;;1.50;;
29538;SDS011;16482;51.046;4.498;2023-02-28T09:39:35;2.08;;;1.30;;
29538;SDS011;16482;51.046;4.498;2023-02-28T09:42:03;2.35;;;1.23;;
29538;SDS011;16482;51.046;4.498;2023-02-28T09:44:43;2.63;;;1.63;;
29538;SDS011;16482;51.046;4.498;2023-02-28T09:50:15;1.83;;;1.20;;
29538;SDS011;16482;51.046;4.498;2023-02-28T09:52:55;2.58;;;1.45;;
29538;SDS011;16482;51.046;4.498;2023-02-28T09:55:26;1.83;;;1.30;;
29538;SDS011;16482;51.046;4.498;2023-02-28T09:58:11;1.90;;;1.20;;
29538;SDS011;16482;51.046;4.498;2023-02-28T10:01:23;1.40;;;1.08;;
29538;SDS011;16482;51.046;4.498;2023-02-28T10:04:23;2.03;;;1.10;;
29538;SDS011;16482;51.046;4.498;2023-02-28T10:07:06;2.05;;;1.30;;
29538;SDS011;16482;51.046;4.498;2023-02-28T10:09:45;2.22;;;1.30;;
29538;SDS011;16482;51.046;4.498;2023-02-28T10:12:14;2.47;;;1.30;;
29538;SDS011;16482;51.046;4.498;2023-02-28T10:14:42;1.88;;;1.10;;
29538;SDS011;16482;51.046;4.498;2023-02-28T10:17:19;2.45;;;1.20;;
29538;SDS011;16482;51.046;4.498;2023-02-28T10:25:33;2.33;;;1.10;;
29538;SDS011;16482;51.046;4.498;2023-02-28T10:28:05;1.70;;;1.10;;
29538;SDS011;16482;51.046;4.498;2023-02-28T10:30:39;2.15;;;1.08;;
29538;SDS011;16482;51.046;4.498;2023-02-28T10:33:32;1.92;;;1.00;;
29538;SDS011;16482;51.046;4.498;2023-02-28T10:35:59;1.77;;;1.15;;
29538;SDS011;16482;51.046;4.498;2023-02-28T10:38:31;2.00;;;1.10;;
29538;SDS011;16482;51.046;4.498;2023-02-28T10:41:03;2.55;;;0.93;;
29538;SDS011;16482;51.046;4.498;2023-02-28T10:43:32;1.88;;;1.17;;
29538;SDS011;16482;51.046;4.498;2023-02-28T10:45:59;1.58;;;1.10;;
29538;SDS011;16482;51.046;4.498;2023-02-28T10:49:00;1.52;;;1.10;;
29538;SDS011;16482;51.046;4.498;2023-02-28T10:51:34;1.40;;;0.88;;
29538;SDS011;16482;51.046;4.498;2023-02-28T10:54:05;1.05;;;0.90;;
29538;SDS011;16482;51.046;4.498;2023-02-28T10:56:31;1.23;;;1.00;;
29538;SDS011;16482;51.046;4.498;2023-02-28T11:01:51;1.33;;;1.05;;
29538;SDS011;16482;51.046;4.498;2023-02-28T11:07:18;1.88;;;1.20;;
29538;SDS011;16482;51.046;4.498;2023-02-28T11:09:46;1.88;;;1.00;;
29538;SDS011;16482;51.046;4.498;2023-02-28T11:12:34;1.98;;;1.10;;
29538;SDS011;16482;51.046;4.498;2023-02-28T11:15:05;1.73;;;1.00;;
29538;SDS011;16482;51.046;4.498;2023-02-28T11:17:56;1.55;;;1.08;;
29538;SDS011;16482;51.046;4.498;2023-02-28T11:20:30;1.92;;;1.08;;
29538;SDS011;16482;51.046;4.498;2023-02-28T11:22:58;1.40;;;1.00;;
29538;SDS011;16482;51.046;4.498;2023-02-28T11:25:28;1.00;;;0.90;;
29538;SDS011;16482;51.046;4.498;2023-02-28T11:28:06;1.88;;;0.98;;
29538;SDS011;16482;51.046;4.498;2023-02-28T11:30:59;1.40;;;1.02;;
29538;SDS011;16482;51.046;4.498;2023-02-28T11:33:45;1.70;;;1.10;;
29538;SDS011;16482;51.046;4.498;2023-02-28T11:36:18;1.90;;;1.17;;
29538;SDS011;16482;51.046;4.498;2023-02-28T11:38:49;1.73;;;1.00;;
29538;SDS011;16482;51.046;4.498;2023-02-28T11:41:22;1.02;;;0.85;;
29538;SDS011;16482;51.046;4.498;2023-02-28T11:49:16;3.05;;;1.13;;
29538;SDS011;16482;51.046;4.498;2023-02-28T11:55:00;1.55;;;1.08;;
29538;SDS011;16482;51.046;4.498;2023-02-28T11:57:32;1.50;;;1.20;;
29538;SDS011;16482;51.046;4.498;2023-02-28T12:03:54;2.42;;;1.33;;
29538;SDS011;16482;51.046;4.498;2023-02-28T12:12:19;1.42;;;1.13;;
29538;SDS011;16482;51.046;4.498;2023-02-28T12:14:57;1.98;;;1.30;;
29538;SDS011;16482;51.046;4.498;2023-02-28T12:20:53;1.35;;;1.02;;
29538;SDS011;16482;51.046;4.498;2023-02-28T12:23:37;1.33;;;1.00;;
29538;SDS011;16482;51.046;4.498;2023-02-28T12:26:18;1.88;;;1.00;;
29538;SDS011;16482;51.046;4.498;2023-02-28T12:32:31;2.55;;;1.35;;
29538;SDS011;16482;51.046;4.498;2023-02-28T12:37:39;2.00;;;1.00;;
29538;SDS011;16482;51.046;4.498;2023-02-28T12:40:32;1.50;;;1.10;;
29538;SDS011;16482;51.046;4.498;2023-02-28T12:45:39;1.65;;;0.98;;
29538;SDS011;16482;51.046;4.498;2023-02-28T12:48:10;3.22;;;1.10;;
29538;SDS011;16482;51.046;4.498;2023-02-28T12:50:40;1.17;;;0.90;;
29538;SDS011;16482;51.046;4.498;2023-02-28T12:55:36;1.27;;;1.00;;
29538;SDS011;16482;51.046;4.498;2023-02-28T13:09:19;1.50;;;1.27;;
29538;SDS011;16482;51.046;4.498;2023-02-28T13:11:52;1.73;;;0.85;;
29538;SDS011;16482;51.046;4.498;2023-02-28T13:16:50;2.40;;;1.08;;
29538;SDS011;16482;51.046;4.498;2023-02-28T13:19:19;1.60;;;1.10;;
29538;SDS011;16482;51.046;4.498;2023-02-28T13:21:48;2.00;;;1.10;;
29538;SDS011;16482;51.046;4.498;2023-02-28T13:29:37;1.17;;;0.88;;
29538;SDS011;16482;51.046;4.498;2023-02-28T13:34:39;2.33;;;0.90;;
29538;SDS011;16482;51.046;4.498;2023-02-28T13:37:32;1.98;;;1.00;;
29538;SDS011;16482;51.046;4.498;2023-02-28T13:42:36;1.83;;;1.20;;
29538;SDS011;16482;51.046;4.498;2023-02-28T13:55:56;3.55;;;1.40;;
29538;SDS011;16482;51.046;4.498;2023-02-28T14:07:26;1.83;;;0.95;;
29538;SDS011;16482;51.046;4.498;2023-02-28T14:10:04;2.20;;;1.25;;
29538;SDS011;16482;51.046;4.498;2023-02-28T14:15:28;3.65;;;1.20;;
29538;SDS011;16482;51.046;4.498;2023-02-28T14:18:13;2.78;;;1.02;;
29538;SDS011;16482;51.046;4.498;2023-02-28T14:20:42;1.45;;;0.98;;
29538;SDS011;16482;51.046;4.498;2023-02-28T14:28:55;1.90;;;1.20;;
29538;SDS011;16482;51.046;4.498;2023-02-28T14:34:35;1.75;;;1.08;;
29538;SDS011;16482;51.046;4.498;2023-02-28T14:37:04;1.73;;;1.10;;
29538;SDS011;16482;51.046;4.498;2023-02-28T14:39:35;3.55;;;1.02;;
29538;SDS011;16482;51.046;4.498;2023-02-28T14:42:24;1.42;;;0.98;;
29538;SDS011;16482;51.046;4.498;2023-02-28T14:44:58;3.33;;;1.33;;
29538;SDS011;16482;51.046;4.498;2023-02-28T14:47:27;1.42;;;1.00;;
29538;SDS011;16482;51.046;4.498;2023-02-28T14:49:56;1.95;;;0.93;;
29538;SDS011;16482;51.046;4.498;2023-02-28T14:52:24;1.55;;;1.08;;
29538;SDS011;16482;51.046;4.498;2023-02-28T14:54:53;1.58;;;0.98;;
29538;SDS011;16482;51.046;4.498;2023-02-28T15:00:04;1.63;;;1.13;;
29538;SDS011;16482;51.046;4.498;2023-02-28T15:02:42;3.28;;;1.08;;
29538;SDS011;16482;51.046;4.498;2023-02-28T15:07:46;2.72;;;1.20;;
29538;SDS011;16482;51.046;4.498;2023-02-28T15:10:26;2.15;;;1.27;;
29538;SDS011;16482;51.046;4.498;2023-02-28T15:12:57;1.50;;;0.98;;
29538;SDS011;16482;51.046;4.498;2023-02-28T15:15:47;1.77;;;1.20;;
29538;SDS011;16482;51.046;4.498;2023-02-28T15:20:56;2.75;;;1.20;;
29538;SDS011;16482;51.046;4.498;2023-02-28T15:23:46;1.60;;;1.10;;
29538;SDS011;16482;51.046;4.498;2023-02-28T15:26:19;1.67;;;0.95;;
29538;SDS011;16482;51.046;4.498;2023-02-28T15:28:51;2.95;;;1.25;;
29538;SDS011;16482;51.046;4.498;2023-02-28T15:33:53;2.17;;;1.00;;
29538;SDS011;16482;51.046;4.498;2023-02-28T15:36:24;1.48;;;1.00;;
29538;SDS011;16482;51.046;4.498;2023-02-28T15:38:57;2.00;;;1.30;;
29538;SDS011;16482;51.046;4.498;2023-02-28T15:41:29;2.35;;;1.10;;
29538;SDS011;16482;51.046;4.498;2023-02-28T15:47:14;1.80;;;1.08;;
29538;SDS011;16482;51.046;4.498;2023-02-28T15:52:21;1.70;;;0.95;;
29538;SDS011;16482;51.046;4.498;2023-02-28T15:55:26;2.50;;;1.02;;
29538;SDS011;16482;51.046;4.498;2023-02-28T15:57:54;4.10;;;1.17;;
29538;SDS011;16482;51.046;4.498;2023-02-28T16:00:29;3.72;;;1.30;;
29538;SDS011;16482;51.046;4.498;2023-02-28T16:02:57;2.63;;;1.05;;
29538;SDS011;16482;51.046;4.498;2023-02-28T16:05:25;1.92;;;1.10;;
29538;SDS011;16482;51.046;4.498;2023-02-28T16:07:59;2.20;;;1.10;;
29538;SDS011;16482;51.046;4.498;2023-02-28T16:10:45;2.50;;;1.40;;
29538;SDS011;16482;51.046;4.498;2023-02-28T16:13:11;2.25;;;1.20;;
29538;SDS011;16482;51.046;4.498;2023-02-28T16:15:41;1.85;;;1.10;;
29538;SDS011;16482;51.046;4.498;2023-02-28T16:18:12;1.70;;;1.13;;
29538;SDS011;16482;51.046;4.498;2023-02-28T16:20:39;1.83;;;1.23;;
29538;SDS011;16482;51.046;4.498;2023-02-28T16:23:06;2.22;;;1.10;;
29538;SDS011;16482;51.046;4.498;2023-02-28T16:25:36;1.95;;;1.20;;
29538;SDS011;16482;51.046;4.498;2023-02-28T16:28:06;1.60;;;1.10;;
29538;SDS011;16482;51.046;4.498;2023-02-28T16:30:48;1.70;;;1.20;;
29538;SDS011;16482;51.046;4.498;2023-02-28T16:33:17;2.50;;;1.50;;
29538;SDS011;16482;51.046;4.498;2023-02-28T16:35:43;1.83;;;1.10;;
29538;SDS011;16482;51.046;4.498;2023-02-28T16:38:08;2.30;;;1.15;;
29538;SDS011;16482;51.046;4.498;2023-02-28T16:40:37;2.47;;;0.93;;
29538;SDS011;16482;51.046;4.498;2023-02-28T16:43:19;2.03;;;1.25;;
29538;SDS011;16482;51.046;4.498;2023-02-28T16:45:48;1.55;;;1.10;;
29538;SDS011;16482;51.046;4.498;2023-02-28T16:48:19;2.17;;;1.23;;
29538;SDS011;16482;51.046;4.498;2023-02-28T16:50:45;1.25;;;1.00;;
29538;SDS011;16482;51.046;4.498;2023-02-28T16:53:11;2.05;;;1.38;;
29538;SDS011;16482;51.046;4.498;2023-02-28T16:55:37;2.17;;;1.10;;
29538;SDS011;16482;51.046;4.498;2023-02-28T16:58:03;2.35;;;1.15;;
29538;SDS011;16482;51.046;4.498;2023-02-28T17:00:29;1.27;;;1.10;;
29538;SDS011;16482;51.046;4.498;2023-02-28T17:02:56;1.83;;;1.30;;
29538;SDS011;16482;51.046;4.498;2023-02-28T17:05:27;1.85;;;1.17;;
29538;SDS011;16482;51.046;4.498;2023-02-28T17:08:01;1.92;;;1.08;;
29538;SDS011;16482;51.046;4.498;2023-02-28T17:10:28;2.58;;;1.02;;
29538;SDS011;16482;51.046;4.498;2023-02-28T17:12:54;2.08;;;1.35;;
29538;SDS011;16482;51.046;4.498;2023-02-28T17:15:28;1.20;;;1.00;;
29538;SDS011;16482;51.046;4.498;2023-02-28T17:17:56;2.60;;;1.08;;
29538;SDS011;16482;51.046;4.498;2023-02-28T17:20:25;2.30;;;1.00;;
29538;SDS011;16482;51.046;4.498;2023-02-28T17:23:01;2.17;;;1.02;;
29538;SDS011;16482;51.046;4.498;2023-02-28T17:25:27;1.60;;;1.10;;
29538;SDS011;16482;51.046;4.498;2023-02-28T17:27:56;1.95;;;1.33;;
29538;SDS011;16482;51.046;4.498;2023-02-28T17:30:27;3.72;;;1.38;;
29538;SDS011;16482;51.046;4.498;2023-02-28T17:32:56;1.80;;;1.40;;
29538;SDS011;16482;51.046;4.498;2023-02-28T17:35:25;2.33;;;1.20;;
29538;SDS011;16482;51.046;4.498;2023-02-28T17:38:00;2.70;;;1.20;;
29538;SDS011;16482;51.046;4.498;2023-02-28T17:40:26;3.53;;;1.52;;
29538;SDS011;16482;51.046;4.498;2023-02-28T17:42:56;3.03;;;1.30;;
29538;SDS011;16482;51.046;4.498;2023-02-28T17:45:27;2.42;;;1.40;;
29538;SDS011;16482;51.046;4.498;2023-02-28T17:47:56;1.35;;;1.00;;
29538;SDS011;16482;51.046;4.498;2023-02-28T17:50:25;3.08;;;1.10;;
29538;SDS011;16482;51.046;4.498;2023-02-28T17:52:54;1.98;;;1.25;;